sensor_id;sensor_type;location;lat;lon;timestamp;P1;durP1;ratioP1;P2;durP2;ratioP2
26277;SDS011;14000;52.056;8.510;2024-01-15T00:01:57;40.83;;;18.53;;
26277;SDS011;14000;52.056;8.510;2024-01-15T00:04:23;42.93;;;18.50;;
26277;SDS011;14000;52.056;8.510;2024-01-15T00:06:49;45.43;;;19.03;;
26277;SDS011;14000;52.056;8.510;2024-01-15T00:09:15;48.80;;;19.83;;
26277;SDS011;14000;52.056;8.510;2024-01-15T00:11:40;43.90;;;18.37;;
26277;SDS011;14000;52.056;8.510;2024-01-15T00:14:07;43.50;;;18.10;;
26277;SDS011;14000;52.056;8.510;2024-01-15T00:16:32;45.87;;;19.40;;
26277;SDS011;14000;52.056;8.510;2024-01-15T00:18:58;47.50;;;19.60;;
26277;SDS011;14000;52.056;8.510;2024-01-15T00:21:23;47.13;;;20.40;;
26277;SDS011;14000;52.056;8.510;2024-01-15T00:23:49;45.77;;;19.70;;
26277;SDS011;14000;52.056;8.510;2024-01-15T00:26:15;44.10;;;17.70;;
26277;SDS011;14000;52.056;8.510;2024-01-15T00:28:40;41.63;;;17.27;;
26277;SDS011;14000;52.056;8.510;2024-01-15T00:31:06;39.47;;;16.13;;
26277;SDS011;14000;52.056;8.510;2024-01-15T00:33:31;35.50;;;14.27;;
26277;SDS011;14000;52.056;8.510;2024-01-15T00:35:57;34.10;;;14.47;;
26277;SDS011;14000;52.056;8.510;2024-01-15T00:38:23;38.40;;;14.63;;
26277;SDS011;14000;52.056;8.510;2024-01-15T00:40:48;36.67;;;14.30;;
26277;SDS011;14000;52.056;8.510;2024-01-15T00:43:14;42.33;;;15.17;;
26277;SDS011;14000;52.056;8.510;2024-01-15T00:45:40;33.93;;;14.90;;
26277;SDS011;14000;52.056;8.510;2024-01-15T00:48:06;36.77;;;14.10;;
26277;SDS011;14000;52.056;8.510;2024-01-15T00:50:32;33.37;;;13.87;;
26277;SDS011;14000;52.056;8.510;2024-01-15T00:52:58;41.00;;;13.90;;
26277;SDS011;14000;52.056;8.510;2024-01-15T00:55:23;36.90;;;13.30;;
26277;SDS011;14000;52.056;8.510;2024-01-15T00:57:49;37.77;;;14.20;;
26277;SDS011;14000;52.056;8.510;2024-01-15T01:00:14;34.97;;;13.40;;
26277;SDS011;14000;52.056;8.510;2024-01-15T01:02:40;34.03;;;13.03;;
26277;SDS011;14000;52.056;8.510;2024-01-15T01:05:06;32.23;;;13.03;;
26277;SDS011;14000;52.056;8.510;2024-01-15T01:07:32;39.30;;;13.53;;
26277;SDS011;14000;52.056;8.510;2024-01-15T01:09:57;35.03;;;13.93;;
26277;SDS011;14000;52.056;8.510;2024-01-15T01:12:23;34.77;;;12.47;;
26277;SDS011;14000;52.056;8.510;2024-01-15T01:14:48;39.80;;;12.27;;
26277;SDS011;14000;52.056;8.510;2024-01-15T01:17:14;35.13;;;12.33;;
26277;SDS011;14000;52.056;8.510;2024-01-15T01:19:40;32.30;;;12.87;;
26277;SDS011;14000;52.056;8.510;2024-01-15T01:22:05;29.77;;;12.27;;
26277;SDS011;14000;52.056;8.510;2024-01-15T01:24:31;31.40;;;11.20;;
26277;SDS011;14000;52.056;8.510;2024-01-15T01:26:56;30.10;;;10.67;;
26277;SDS011;14000;52.056;8.510;2024-01-15T01:29:22;27.10;;;10.47;;
26277;SDS011;14000;52.056;8.510;2024-01-15T01:31:48;28.00;;;9.73;;
26277;SDS011;14000;52.056;8.510;2024-01-15T01:34:14;26.40;;;9.93;;
26277;SDS011;14000;52.056;8.510;2024-01-15T01:36:41;25.90;;;9.53;;
26277;SDS011;14000;52.056;8.510;2024-01-15T01:39:07;27.83;;;9.93;;
26277;SDS011;14000;52.056;8.510;2024-01-15T01:41:32;26.10;;;9.43;;
26277;SDS011;14000;52.056;8.510;2024-01-15T01:43:58;25.67;;;9.43;;
26277;SDS011;14000;52.056;8.510;2024-01-15T01:46:23;23.33;;;8.33;;
26277;SDS011;14000;52.056;8.510;2024-01-15T01:48:51;24.90;;;10.03;;
26277;SDS011;14000;52.056;8.510;2024-01-15T01:51:17;21.57;;;8.27;;
26277;SDS011;14000;52.056;8.510;2024-01-15T01:53:43;25.17;;;8.43;;
26277;SDS011;14000;52.056;8.510;2024-01-15T01:56:10;22.27;;;8.17;;
26277;SDS011;14000;52.056;8.510;2024-01-15T01:58:36;24.47;;;8.53;;
26277;SDS011;14000;52.056;8.510;2024-01-15T02:01:02;26.87;;;8.73;;
26277;SDS011;14000;52.056;8.510;2024-01-15T02:03:29;21.67;;;8.13;;
26277;SDS011;14000;52.056;8.510;2024-01-15T02:05:55;27.60;;;8.77;;
26277;SDS011;14000;52.056;8.510;2024-01-15T02:08:21;19.43;;;7.63;;
26277;SDS011;14000;52.056;8.510;2024-01-15T02:10:47;24.53;;;8.47;;
26277;SDS011;14000;52.056;8.510;2024-01-15T02:13:13;19.67;;;7.67;;
26277;SDS011;14000;52.056;8.510;2024-01-15T02:15:39;26.03;;;8.03;;
26277;SDS011;14000;52.056;8.510;2024-01-15T02:18:05;25.43;;;8.17;;
26277;SDS011;14000;52.056;8.510;2024-01-15T02:20:35;25.90;;;8.40;;
26277;SDS011;14000;52.056;8.510;2024-01-15T02:23:07;24.33;;;8.57;;
26277;SDS011;14000;52.056;8.510;2024-01-15T02:25:38;27.63;;;8.17;;
26277;SDS011;14000;52.056;8.510;2024-01-15T02:28:05;24.77;;;8.57;;
26277;SDS011;14000;52.056;8.510;2024-01-15T02:30:33;25.93;;;8.93;;
26277;SDS011;14000;52.056;8.510;2024-01-15T02:33:03;21.30;;;7.87;;
26277;SDS011;14000;52.056;8.510;2024-01-15T02:35:28;27.47;;;9.00;;
26277;SDS011;14000;52.056;8.510;2024-01-15T02:37:54;29.50;;;9.53;;
26277;SDS011;14000;52.056;8.510;2024-01-15T02:40:19;23.20;;;8.63;;
26277;SDS011;14000;52.056;8.510;2024-01-15T02:42:45;23.97;;;9.00;;
26277;SDS011;14000;52.056;8.510;2024-01-15T02:45:10;24.67;;;9.10;;
26277;SDS011;14000;52.056;8.510;2024-01-15T02:47:36;28.07;;;9.53;;
26277;SDS011;14000;52.056;8.510;2024-01-15T02:50:01;29.63;;;9.07;;
26277;SDS011;14000;52.056;8.510;2024-01-15T02:52:27;24.73;;;9.27;;
26277;SDS011;14000;52.056;8.510;2024-01-15T02:54:53;28.53;;;9.23;;
26277;SDS011;14000;52.056;8.510;2024-01-15T02:57:18;30.60;;;9.90;;
26277;SDS011;14000;52.056;8.510;2024-01-15T02:59:44;29.47;;;9.17;;
26277;SDS011;14000;52.056;8.510;2024-01-15T03:02:09;27.00;;;8.90;;
26277;SDS011;14000;52.056;8.510;2024-01-15T03:04:35;26.10;;;8.73;;
26277;SDS011;14000;52.056;8.510;2024-01-15T03:07:00;31.00;;;9.07;;
26277;SDS011;14000;52.056;8.510;2024-01-15T03:09:26;24.83;;;8.27;;
26277;SDS011;14000;52.056;8.510;2024-01-15T03:11:51;26.47;;;8.70;;
26277;SDS011;14000;52.056;8.510;2024-01-15T03:14:17;23.03;;;10.10;;
26277;SDS011;14000;52.056;8.510;2024-01-15T03:16:42;27.37;;;9.93;;
26277;SDS011;14000;52.056;8.510;2024-01-15T03:19:08;27.87;;;10.17;;
26277;SDS011;14000;52.056;8.510;2024-01-15T03:21:33;31.17;;;10.17;;
26277;SDS011;14000;52.056;8.510;2024-01-15T03:23:59;29.40;;;10.27;;
26277;SDS011;14000;52.056;8.510;2024-01-15T03:26:24;35.50;;;11.07;;
26277;SDS011;14000;52.056;8.510;2024-01-15T03:28:50;30.07;;;10.57;;
26277;SDS011;14000;52.056;8.510;2024-01-15T03:31:17;28.33;;;10.60;;
26277;SDS011;14000;52.056;8.510;2024-01-15T03:33:42;29.30;;;10.53;;
26277;SDS011;14000;52.056;8.510;2024-01-15T03:36:08;39.50;;;12.30;;
26277;SDS011;14000;52.056;8.510;2024-01-15T03:38:34;23.83;;;9.67;;
26277;SDS011;14000;52.056;8.510;2024-01-15T03:41:03;32.93;;;10.83;;
26277;SDS011;14000;52.056;8.510;2024-01-15T03:43:29;35.10;;;10.43;;
26277;SDS011;14000;52.056;8.510;2024-01-15T03:45:54;32.03;;;10.53;;
26277;SDS011;14000;52.056;8.510;2024-01-15T03:48:20;27.40;;;9.60;;
26277;SDS011;14000;52.056;8.510;2024-01-15T03:50:45;26.83;;;10.30;;
26277;SDS011;14000;52.056;8.510;2024-01-15T03:53:11;27.40;;;9.87;;
26277;SDS011;14000;52.056;8.510;2024-01-15T03:55:37;31.87;;;10.50;;
26277;SDS011;14000;52.056;8.510;2024-01-15T03:58:02;29.90;;;9.40;;
26277;SDS011;14000;52.056;8.510;2024-01-15T04:00:28;26.37;;;9.53;;
26277;SDS011;14000;52.056;8.510;2024-01-15T04:02:53;26.17;;;9.27;;
26277;SDS011;14000;52.056;8.510;2024-01-15T04:05:19;29.37;;;9.50;;
26277;SDS011;14000;52.056;8.510;2024-01-15T04:07:44;35.53;;;9.70;;
26277;SDS011;14000;52.056;8.510;2024-01-15T04:10:10;28.83;;;8.53;;
26277;SDS011;14000;52.056;8.510;2024-01-15T04:12:35;31.90;;;9.10;;
26277;SDS011;14000;52.056;8.510;2024-01-15T04:15:01;28.47;;;8.50;;
26277;SDS011;14000;52.056;8.510;2024-01-15T04:17:27;29.87;;;8.83;;
26277;SDS011;14000;52.056;8.510;2024-01-15T04:19:52;24.93;;;7.43;;
26277;SDS011;14000;52.056;8.510;2024-01-15T04:22:18;30.13;;;8.50;;
26277;SDS011;14000;52.056;8.510;2024-01-15T04:24:44;18.97;;;7.43;;
26277;SDS011;14000;52.056;8.510;2024-01-15T04:27:09;28.23;;;8.93;;
26277;SDS011;14000;52.056;8.510;2024-01-15T04:29:37;27.40;;;8.83;;
26277;SDS011;14000;52.056;8.510;2024-01-15T04:32:04;22.03;;;8.50;;
26277;SDS011;14000;52.056;8.510;2024-01-15T04:34:29;28.40;;;9.37;;
26277;SDS011;14000;52.056;8.510;2024-01-15T04:36:55;25.00;;;8.70;;
26277;SDS011;14000;52.056;8.510;2024-01-15T04:39:21;26.07;;;8.87;;
26277;SDS011;14000;52.056;8.510;2024-01-15T04:41:47;23.27;;;8.07;;
26277;SDS011;14000;52.056;8.510;2024-01-15T04:44:12;27.40;;;7.93;;
26277;SDS011;14000;52.056;8.510;2024-01-15T04:46:38;21.67;;;7.00;;
26277;SDS011;14000;52.056;8.510;2024-01-15T04:49:04;22.70;;;7.93;;
26277;SDS011;14000;52.056;8.510;2024-01-15T04:51:30;21.83;;;6.67;;
26277;SDS011;14000;52.056;8.510;2024-01-15T04:53:55;28.77;;;8.03;;
26277;SDS011;14000;52.056;8.510;2024-01-15T04:56:21;23.03;;;8.43;;
26277;SDS011;14000;52.056;8.510;2024-01-15T04:58:46;27.33;;;8.50;;
26277;SDS011;14000;52.056;8.510;2024-01-15T05:01:12;28.87;;;9.03;;
26277;SDS011;14000;52.056;8.510;2024-01-15T05:03:37;28.40;;;8.30;;
26277;SDS011;14000;52.056;8.510;2024-01-15T05:06:03;29.23;;;9.00;;
26277;SDS011;14000;52.056;8.510;2024-01-15T05:08:29;27.37;;;8.30;;
26277;SDS011;14000;52.056;8.510;2024-01-15T05:10:54;25.37;;;8.77;;
26277;SDS011;14000;52.056;8.510;2024-01-15T05:13:20;30.63;;;9.23;;
26277;SDS011;14000;52.056;8.510;2024-01-15T05:15:45;24.10;;;9.37;;
26277;SDS011;14000;52.056;8.510;2024-01-15T05:18:11;29.33;;;9.10;;
26277;SDS011;14000;52.056;8.510;2024-01-15T05:20:36;20.57;;;8.60;;
26277;SDS011;14000;52.056;8.510;2024-01-15T05:23:02;25.03;;;8.80;;
26277;SDS011;14000;52.056;8.510;2024-01-15T05:25:28;28.23;;;8.73;;
26277;SDS011;14000;52.056;8.510;2024-01-15T05:27:53;28.83;;;9.60;;
26277;SDS011;14000;52.056;8.510;2024-01-15T05:30:19;22.87;;;8.53;;
26277;SDS011;14000;52.056;8.510;2024-01-15T05:32:44;26.03;;;9.03;;
26277;SDS011;14000;52.056;8.510;2024-01-15T05:35:10;28.63;;;9.23;;
26277;SDS011;14000;52.056;8.510;2024-01-15T05:37:35;23.33;;;7.77;;
26277;SDS011;14000;52.056;8.510;2024-01-15T05:40:01;25.30;;;8.67;;
26277;SDS011;14000;52.056;8.510;2024-01-15T05:42:29;21.10;;;8.30;;
26277;SDS011;14000;52.056;8.510;2024-01-15T05:44:56;24.80;;;8.23;;
26277;SDS011;14000;52.056;8.510;2024-01-15T05:47:24;29.17;;;8.50;;
26277;SDS011;14000;52.056;8.510;2024-01-15T05:49:49;29.20;;;8.47;;
26277;SDS011;14000;52.056;8.510;2024-01-15T05:52:15;23.47;;;8.60;;
26277;SDS011;14000;52.056;8.510;2024-01-15T05:54:41;22.73;;;7.50;;
26277;SDS011;14000;52.056;8.510;2024-01-15T05:57:07;20.47;;;7.50;;
26277;SDS011;14000;52.056;8.510;2024-01-15T05:59:32;26.20;;;7.60;;
26277;SDS011;14000;52.056;8.510;2024-01-15T06:02:01;22.43;;;7.73;;
26277;SDS011;14000;52.056;8.510;2024-01-15T06:04:26;20.20;;;7.43;;
26277;SDS011;14000;52.056;8.510;2024-01-15T06:06:52;22.80;;;8.20;;
26277;SDS011;14000;52.056;8.510;2024-01-15T06:09:17;23.83;;;8.93;;
26277;SDS011;14000;52.056;8.510;2024-01-15T06:11:43;24.70;;;8.27;;
26277;SDS011;14000;52.056;8.510;2024-01-15T06:14:08;21.67;;;7.90;;
26277;SDS011;14000;52.056;8.510;2024-01-15T06:16:34;19.33;;;7.73;;
26277;SDS011;14000;52.056;8.510;2024-01-15T06:18:59;23.93;;;8.17;;
26277;SDS011;14000;52.056;8.510;2024-01-15T06:21:25;23.57;;;8.50;;
26277;SDS011;14000;52.056;8.510;2024-01-15T06:23:50;25.13;;;8.27;;
26277;SDS011;14000;52.056;8.510;2024-01-15T06:26:16;24.23;;;10.03;;
26277;SDS011;14000;52.056;8.510;2024-01-15T06:28:42;25.90;;;9.00;;
26277;SDS011;14000;52.056;8.510;2024-01-15T06:31:07;24.90;;;10.47;;
26277;SDS011;14000;52.056;8.510;2024-01-15T06:33:33;29.00;;;10.00;;
26277;SDS011;14000;52.056;8.510;2024-01-15T06:35:58;24.37;;;10.27;;
26277;SDS011;14000;52.056;8.510;2024-01-15T06:38:24;31.60;;;9.97;;
26277;SDS011;14000;52.056;8.510;2024-01-15T06:40:50;21.50;;;9.63;;
26277;SDS011;14000;52.056;8.510;2024-01-15T06:43:17;25.87;;;10.33;;
26277;SDS011;14000;52.056;8.510;2024-01-15T06:45:46;23.10;;;8.03;;
26277;SDS011;14000;52.056;8.510;2024-01-15T06:48:11;19.97;;;8.80;;
26277;SDS011;14000;52.056;8.510;2024-01-15T06:50:41;21.67;;;10.67;;
26277;SDS011;14000;52.056;8.510;2024-01-15T06:53:10;21.53;;;9.27;;
26277;SDS011;14000;52.056;8.510;2024-01-15T06:55:35;23.57;;;7.83;;
26277;SDS011;14000;52.056;8.510;2024-01-15T06:58:01;21.37;;;8.37;;
26277;SDS011;14000;52.056;8.510;2024-01-15T07:00:27;25.33;;;7.67;;
26277;SDS011;14000;52.056;8.510;2024-01-15T07:02:52;21.87;;;8.33;;
26277;SDS011;14000;52.056;8.510;2024-01-15T07:05:19;24.77;;;8.53;;
26277;SDS011;14000;52.056;8.510;2024-01-15T07:07:45;18.10;;;7.83;;
26277;SDS011;14000;52.056;8.510;2024-01-15T07:10:12;18.83;;;8.00;;
26277;SDS011;14000;52.056;8.510;2024-01-15T07:12:38;18.80;;;8.23;;
26277;SDS011;14000;52.056;8.510;2024-01-15T07:15:03;26.53;;;8.90;;
26277;SDS011;14000;52.056;8.510;2024-01-15T07:17:32;21.40;;;6.93;;
26277;SDS011;14000;52.056;8.510;2024-01-15T07:19:57;26.60;;;8.50;;
26277;SDS011;14000;52.056;8.510;2024-01-15T07:22:23;32.90;;;8.57;;
26277;SDS011;14000;52.056;8.510;2024-01-15T07:24:48;23.63;;;8.63;;
26277;SDS011;14000;52.056;8.510;2024-01-15T07:27:14;23.10;;;9.77;;
26277;SDS011;14000;52.056;8.510;2024-01-15T07:29:39;29.20;;;8.63;;
26277;SDS011;14000;52.056;8.510;2024-01-15T07:32:05;24.70;;;8.93;;
26277;SDS011;14000;52.056;8.510;2024-01-15T07:34:32;20.77;;;9.60;;
26277;SDS011;14000;52.056;8.510;2024-01-15T07:36:58;21.40;;;8.60;;
26277;SDS011;14000;52.056;8.510;2024-01-15T07:39:23;24.87;;;9.07;;
26277;SDS011;14000;52.056;8.510;2024-01-15T07:41:50;30.33;;;10.73;;
26277;SDS011;14000;52.056;8.510;2024-01-15T07:44:16;21.63;;;9.50;;
26277;SDS011;14000;52.056;8.510;2024-01-15T07:46:48;23.93;;;9.83;;
26277;SDS011;14000;52.056;8.510;2024-01-15T07:49:13;22.80;;;9.63;;
26277;SDS011;14000;52.056;8.510;2024-01-15T07:51:39;20.87;;;8.70;;
26277;SDS011;14000;52.056;8.510;2024-01-15T07:54:05;23.87;;;8.53;;
26277;SDS011;14000;52.056;8.510;2024-01-15T07:56:31;22.60;;;9.23;;
26277;SDS011;14000;52.056;8.510;2024-01-15T07:58:57;25.50;;;9.43;;
26277;SDS011;14000;52.056;8.510;2024-01-15T08:01:23;22.37;;;9.17;;
26277;SDS011;14000;52.056;8.510;2024-01-15T08:03:48;22.43;;;9.20;;
26277;SDS011;14000;52.056;8.510;2024-01-15T08:06:14;25.87;;;8.67;;
26277;SDS011;14000;52.056;8.510;2024-01-15T08:08:40;21.97;;;9.40;;
26277;SDS011;14000;52.056;8.510;2024-01-15T08:11:05;20.27;;;8.33;;
26277;SDS011;14000;52.056;8.510;2024-01-15T08:13:31;21.27;;;7.97;;
26277;SDS011;14000;52.056;8.510;2024-01-15T08:15:57;22.00;;;7.77;;
26277;SDS011;14000;52.056;8.510;2024-01-15T08:18:22;21.83;;;7.53;;
26277;SDS011;14000;52.056;8.510;2024-01-15T08:20:48;17.47;;;7.77;;
26277;SDS011;14000;52.056;8.510;2024-01-15T08:23:14;18.97;;;8.80;;
26277;SDS011;14000;52.056;8.510;2024-01-15T08:25:40;23.33;;;9.10;;
26277;SDS011;14000;52.056;8.510;2024-01-15T08:28:05;21.10;;;8.30;;
26277;SDS011;14000;52.056;8.510;2024-01-15T08:30:31;19.43;;;8.47;;
26277;SDS011;14000;52.056;8.510;2024-01-15T08:32:56;20.50;;;9.10;;
26277;SDS011;14000;52.056;8.510;2024-01-15T08:35:22;16.90;;;7.90;;
26277;SDS011;14000;52.056;8.510;2024-01-15T08:37:54;19.53;;;8.80;;
26277;SDS011;14000;52.056;8.510;2024-01-15T08:40:19;18.73;;;8.23;;
26277;SDS011;14000;52.056;8.510;2024-01-15T08:42:45;17.37;;;7.70;;
26277;SDS011;14000;52.056;8.510;2024-01-15T08:45:11;16.23;;;8.53;;
26277;SDS011;14000;52.056;8.510;2024-01-15T08:47:37;18.07;;;8.47;;
26277;SDS011;14000;52.056;8.510;2024-01-15T08:50:03;17.37;;;8.30;;
26277;SDS011;14000;52.056;8.510;2024-01-15T08:52:29;16.10;;;7.93;;
26277;SDS011;14000;52.056;8.510;2024-01-15T08:54:58;18.43;;;7.93;;
26277;SDS011;14000;52.056;8.510;2024-01-15T08:57:24;16.43;;;8.57;;
26277;SDS011;14000;52.056;8.510;2024-01-15T08:59:49;17.27;;;8.53;;
26277;SDS011;14000;52.056;8.510;2024-01-15T09:02:16;16.20;;;8.17;;
26277;SDS011;14000;52.056;8.510;2024-01-15T09:04:41;16.90;;;8.63;;
26277;SDS011;14000;52.056;8.510;2024-01-15T09:07:07;17.97;;;8.27;;
26277;SDS011;14000;52.056;8.510;2024-01-15T09:09:33;21.73;;;9.73;;
26277;SDS011;14000;52.056;8.510;2024-01-15T09:11:59;21.47;;;10.03;;
26277;SDS011;14000;52.056;8.510;2024-01-15T09:14:25;20.17;;;9.60;;
26277;SDS011;14000;52.056;8.510;2024-01-15T09:16:52;17.53;;;8.57;;
26277;SDS011;14000;52.056;8.510;2024-01-15T09:19:18;18.33;;;8.83;;
26277;SDS011;14000;52.056;8.510;2024-01-15T09:21:43;21.50;;;9.17;;
26277;SDS011;14000;52.056;8.510;2024-01-15T09:24:09;17.17;;;8.83;;
26277;SDS011;14000;52.056;8.510;2024-01-15T09:26:34;21.87;;;9.17;;
26277;SDS011;14000;52.056;8.510;2024-01-15T09:29:00;22.73;;;10.20;;
26277;SDS011;14000;52.056;8.510;2024-01-15T09:31:26;24.73;;;10.60;;
26277;SDS011;14000;52.056;8.510;2024-01-15T09:33:52;18.73;;;9.53;;
26277;SDS011;14000;52.056;8.510;2024-01-15T09:36:21;18.77;;;8.80;;
26277;SDS011;14000;52.056;8.510;2024-01-15T09:38:47;19.53;;;9.23;;
26277;SDS011;14000;52.056;8.510;2024-01-15T09:41:13;20.77;;;9.60;;
26277;SDS011;14000;52.056;8.510;2024-01-15T09:43:39;22.07;;;9.30;;
26277;SDS011;14000;52.056;8.510;2024-01-15T09:46:05;22.03;;;8.90;;
26277;SDS011;14000;52.056;8.510;2024-01-15T09:48:31;19.37;;;9.13;;
26277;SDS011;14000;52.056;8.510;2024-01-15T09:50:59;19.83;;;8.73;;
26277;SDS011;14000;52.056;8.510;2024-01-15T09:53:27;23.37;;;9.07;;
26277;SDS011;14000;52.056;8.510;2024-01-15T09:55:53;20.83;;;8.77;;
26277;SDS011;14000;52.056;8.510;2024-01-15T09:58:18;24.07;;;9.07;;
26277;SDS011;14000;52.056;8.510;2024-01-15T10:00:44;24.70;;;8.93;;
26277;SDS011;14000;52.056;8.510;2024-01-15T10:03:12;20.53;;;8.00;;
26277;SDS011;14000;52.056;8.510;2024-01-15T10:05:38;25.30;;;7.93;;
26277;SDS011;14000;52.056;8.510;2024-01-15T10:08:04;22.57;;;8.87;;
26277;SDS011;14000;52.056;8.510;2024-01-15T10:10:30;23.80;;;8.57;;
26277;SDS011;14000;52.056;8.510;2024-01-15T10:12:56;23.90;;;8.90;;
26277;SDS011;14000;52.056;8.510;2024-01-15T10:15:25;23.53;;;8.27;;
26277;SDS011;14000;52.056;8.510;2024-01-15T10:17:51;27.10;;;9.00;;
26277;SDS011;14000;52.056;8.510;2024-01-15T10:20:17;27.63;;;9.27;;
26277;SDS011;14000;52.056;8.510;2024-01-15T10:22:43;17.63;;;8.10;;
26277;SDS011;14000;52.056;8.510;2024-01-15T10:25:12;21.40;;;7.87;;
26277;SDS011;14000;52.056;8.510;2024-01-15T10:27:38;19.67;;;8.53;;
26277;SDS011;14000;52.056;8.510;2024-01-15T10:30:05;24.10;;;7.27;;
26277;SDS011;14000;52.056;8.510;2024-01-15T10:32:31;15.93;;;7.67;;
26277;SDS011;14000;52.056;8.510;2024-01-15T10:34:57;19.50;;;7.43;;
26277;SDS011;14000;52.056;8.510;2024-01-15T10:37:23;20.50;;;6.23;;
26277;SDS011;14000;52.056;8.510;2024-01-15T10:39:49;22.93;;;6.37;;
26277;SDS011;14000;52.056;8.510;2024-01-15T10:42:15;27.63;;;10.30;;
26277;SDS011;14000;52.056;8.510;2024-01-15T10:44:42;16.97;;;6.67;;
26277;SDS011;14000;52.056;8.510;2024-01-15T10:47:08;21.90;;;5.67;;
26277;SDS011;14000;52.056;8.510;2024-01-15T10:49:34;17.87;;;6.00;;
26277;SDS011;14000;52.056;8.510;2024-01-15T10:52:00;16.50;;;5.90;;
26277;SDS011;14000;52.056;8.510;2024-01-15T10:54:26;13.27;;;5.43;;
26277;SDS011;14000;52.056;8.510;2024-01-15T10:56:52;15.53;;;5.20;;
26277;SDS011;14000;52.056;8.510;2024-01-15T10:59:20;17.33;;;5.03;;
26277;SDS011;14000;52.056;8.510;2024-01-15T11:01:46;16.13;;;5.53;;
26277;SDS011;14000;52.056;8.510;2024-01-15T11:04:13;16.03;;;5.33;;
26277;SDS011;14000;52.056;8.510;2024-01-15T11:06:43;19.93;;;4.63;;
26277;SDS011;14000;52.056;8.510;2024-01-15T11:09:11;15.80;;;4.87;;
26277;SDS011;14000;52.056;8.510;2024-01-15T11:11:44;15.20;;;4.50;;
26277;SDS011;14000;52.056;8.510;2024-01-15T11:14:33;18.93;;;4.90;;
26277;SDS011;14000;52.056;8.510;2024-01-15T11:17:08;13.57;;;4.77;;
26277;SDS011;14000;52.056;8.510;2024-01-15T11:22:09;18.07;;;4.77;;
26277;SDS011;14000;52.056;8.510;2024-01-15T11:25:01;16.67;;;4.50;;
26277;SDS011;14000;52.056;8.510;2024-01-15T11:27:48;14.80;;;4.40;;
26277;SDS011;14000;52.056;8.510;2024-01-15T11:30:17;14.60;;;3.97;;
26277;SDS011;14000;52.056;8.510;2024-01-15T11:32:46;14.50;;;4.10;;
26277;SDS011;14000;52.056;8.510;2024-01-15T11:35:12;15.40;;;4.20;;
26277;SDS011;14000;52.056;8.510;2024-01-15T11:40:18;13.17;;;3.50;;
26277;SDS011;14000;52.056;8.510;2024-01-15T11:42:45;14.37;;;3.87;;
26277;SDS011;14000;52.056;8.510;2024-01-15T11:45:12;17.87;;;4.63;;
26277;SDS011;14000;52.056;8.510;2024-01-15T11:50:13;16.23;;;4.10;;
26277;SDS011;14000;52.056;8.510;2024-01-15T11:52:39;12.80;;;3.80;;
26277;SDS011;14000;52.056;8.510;2024-01-15T11:55:20;12.60;;;3.80;;
26277;SDS011;14000;52.056;8.510;2024-01-15T11:57:52;17.93;;;4.50;;
26277;SDS011;14000;52.056;8.510;2024-01-15T12:00:21;15.93;;;4.53;;
26277;SDS011;14000;52.056;8.510;2024-01-15T12:02:49;13.83;;;4.60;;
26277;SDS011;14000;52.056;8.510;2024-01-15T12:05:16;13.73;;;4.30;;
26277;SDS011;14000;52.056;8.510;2024-01-15T12:07:45;30.30;;;9.00;;
26277;SDS011;14000;52.056;8.510;2024-01-15T12:10:14;19.50;;;6.17;;
26277;SDS011;14000;52.056;8.510;2024-01-15T12:15:28;18.90;;;4.27;;
26277;SDS011;14000;52.056;8.510;2024-01-15T12:17:58;13.43;;;4.30;;
26277;SDS011;14000;52.056;8.510;2024-01-15T12:20:25;13.70;;;4.00;;
26277;SDS011;14000;52.056;8.510;2024-01-15T12:22:52;15.63;;;4.10;;
26277;SDS011;14000;52.056;8.510;2024-01-15T12:25:18;10.53;;;3.00;;
26277;SDS011;14000;52.056;8.510;2024-01-15T12:27:44;12.70;;;3.50;;
26277;SDS011;14000;52.056;8.510;2024-01-15T12:30:10;11.70;;;3.00;;
26277;SDS011;14000;52.056;8.510;2024-01-15T12:32:37;15.03;;;3.70;;
26277;SDS011;14000;52.056;8.510;2024-01-15T12:35:03;11.70;;;3.60;;
26277;SDS011;14000;52.056;8.510;2024-01-15T12:37:29;14.03;;;3.90;;
26277;SDS011;14000;52.056;8.510;2024-01-15T12:39:55;12.17;;;3.67;;
26277;SDS011;14000;52.056;8.510;2024-01-15T12:42:21;13.97;;;3.90;;
26277;SDS011;14000;52.056;8.510;2024-01-15T12:44:47;12.93;;;4.30;;
26277;SDS011;14000;52.056;8.510;2024-01-15T12:47:13;13.87;;;3.63;;
26277;SDS011;14000;52.056;8.510;2024-01-15T12:49:39;13.37;;;4.17;;
26277;SDS011;14000;52.056;8.510;2024-01-15T12:52:07;24.50;;;8.20;;
26277;SDS011;14000;52.056;8.510;2024-01-15T12:54:34;14.13;;;3.70;;
26277;SDS011;14000;52.056;8.510;2024-01-15T12:56:59;13.53;;;4.10;;
26277;SDS011;14000;52.056;8.510;2024-01-15T12:59:25;13.73;;;3.40;;
26277;SDS011;14000;52.056;8.510;2024-01-15T13:01:50;19.67;;;4.43;;
26277;SDS011;14000;52.056;8.510;2024-01-15T13:04:22;15.27;;;4.03;;
26277;SDS011;14000;52.056;8.510;2024-01-15T13:06:49;15.93;;;4.00;;
26277;SDS011;14000;52.056;8.510;2024-01-15T13:09:15;15.93;;;3.90;;
26277;SDS011;14000;52.056;8.510;2024-01-15T13:11:42;16.87;;;3.77;;
26277;SDS011;14000;52.056;8.510;2024-01-15T13:14:09;14.77;;;3.60;;
26277;SDS011;14000;52.056;8.510;2024-01-15T13:16:34;14.03;;;3.20;;
26277;SDS011;14000;52.056;8.510;2024-01-15T13:19:00;16.90;;;2.97;;
26277;SDS011;14000;52.056;8.510;2024-01-15T13:21:25;14.33;;;3.17;;
26277;SDS011;14000;52.056;8.510;2024-01-15T13:23:51;12.97;;;3.07;;
26277;SDS011;14000;52.056;8.510;2024-01-15T13:26:16;11.57;;;3.20;;
26277;SDS011;14000;52.056;8.510;2024-01-15T13:28:44;9.90;;;3.10;;
26277;SDS011;14000;52.056;8.510;2024-01-15T13:31:09;13.97;;;3.83;;
26277;SDS011;14000;52.056;8.510;2024-01-15T13:33:35;13.30;;;2.97;;
26277;SDS011;14000;52.056;8.510;2024-01-15T13:36:00;9.70;;;3.20;;
26277;SDS011;14000;52.056;8.510;2024-01-15T13:38:27;12.27;;;3.37;;
26277;SDS011;14000;52.056;8.510;2024-01-15T13:40:53;11.57;;;3.37;;
26277;SDS011;14000;52.056;8.510;2024-01-15T13:43:20;11.50;;;3.60;;
26277;SDS011;14000;52.056;8.510;2024-01-15T13:45:46;14.47;;;3.30;;
26277;SDS011;14000;52.056;8.510;2024-01-15T13:48:11;11.43;;;3.13;;
26277;SDS011;14000;52.056;8.510;2024-01-15T13:50:37;13.33;;;3.60;;
26277;SDS011;14000;52.056;8.510;2024-01-15T13:53:03;9.77;;;3.17;;
26277;SDS011;14000;52.056;8.510;2024-01-15T13:55:28;12.47;;;3.40;;
26277;SDS011;14000;52.056;8.510;2024-01-15T13:57:55;13.93;;;3.13;;
26277;SDS011;14000;52.056;8.510;2024-01-15T14:00:20;11.17;;;2.87;;
26277;SDS011;14000;52.056;8.510;2024-01-15T14:02:46;12.40;;;3.10;;
26277;SDS011;14000;52.056;8.510;2024-01-15T14:05:12;11.33;;;3.40;;
26277;SDS011;14000;52.056;8.510;2024-01-15T14:07:38;9.77;;;3.30;;
26277;SDS011;14000;52.056;8.510;2024-01-15T14:10:05;10.53;;;3.40;;
26277;SDS011;14000;52.056;8.510;2024-01-15T14:12:32;10.50;;;3.23;;
26277;SDS011;14000;52.056;8.510;2024-01-15T14:14:58;10.27;;;3.20;;
26277;SDS011;14000;52.056;8.510;2024-01-15T14:17:24;13.07;;;3.10;;
26277;SDS011;14000;52.056;8.510;2024-01-15T14:19:50;9.70;;;3.47;;
26277;SDS011;14000;52.056;8.510;2024-01-15T14:22:16;11.17;;;3.20;;
26277;SDS011;14000;52.056;8.510;2024-01-15T14:24:41;12.17;;;3.77;;
26277;SDS011;14000;52.056;8.510;2024-01-15T14:27:07;10.93;;;3.23;;
26277;SDS011;14000;52.056;8.510;2024-01-15T14:29:32;9.93;;;3.47;;
26277;SDS011;14000;52.056;8.510;2024-01-15T14:31:58;11.70;;;3.30;;
26277;SDS011;14000;52.056;8.510;2024-01-15T14:34:24;12.20;;;3.33;;
26277;SDS011;14000;52.056;8.510;2024-01-15T14:36:51;13.93;;;3.83;;
26277;SDS011;14000;52.056;8.510;2024-01-15T14:39:18;13.13;;;4.00;;